Palotina, Brazil
Current Conditions -  °F | °C
As of 11:00 PM on Thursday 18 Dec 2014 (Local Time) from SBCA Reporting Station
Scattered Clouds Scattered Clouds  
Wind Chill: 72°   Ceiling: Unl
Heat Index: 72°   Visibility: 6mi
Dew Point: 61°   Wind: 12mph
Humidity: 69%   Direction: 230°SW
Pressure: 29.91"   Gusts: NA
Location:  24.28°S, 53.84°W
Report Text: SBCA 190100Z 23010KT 9999 SCT040 22/16 Q1013
Loading
Personal Weather Stations






























Interactive Weather Map New forecast layout! Learn more

10-Day Weather Forecast

Advertisements
Track Severe Weather on mobile